Time;durP1;ratioP1;P1;durP2;ratioP2;P2;SDS_P1;SDS_P2;PMS_P1;PMS_P2;Temp;Humidity;BMP_temperature;BMP_pressure;BME280_temperature;BME280_humidity;BME280_pressure;Samples;Min_cycle;Max_cycle;Signal;HPM_P1;HPM_P2
2022/08/06 00:00:12;;;;;;;1.17;0.40;;;18.40;99.90;;;;;;5036343;28;20201;-87
2022/08/06 00:02:43;;;;;;;2.67;0.70;;;18.40;99.90;;;;;;5031858;28;20211;-87
2022/08/06 00:05:14;;;;;;;1.08;0.50;;;18.40;99.90;;;;;;5035823;28;20563;-87
2022/08/06 00:07:45;;;;;;;1.02;0.50;;;18.50;99.90;;;;;;5034730;28;20816;-87
2022/08/06 00:10:18;;;;;;;1.38;0.50;;;18.50;99.90;;;;;;5032862;28;20235;-87
2022/08/06 00:12:53;;;;;;;1.75;0.52;;;18.50;99.90;;;;;;5033372;28;20196;-87
2022/08/06 00:15:24;;;;;;;0.90;0.40;;;18.60;99.90;;;;;;5034988;28;20192;-87
2022/08/06 00:17:55;;;;;;;0.30;0.30;;;18.50;99.90;;;;;;5033740;28;20232;-87
2022/08/06 00:20:26;;;;;;;1.27;0.30;;;18.60;99.90;;;;;;5036518;28;20214;-87
2022/08/06 00:22:57;;;;;;;1.33;0.47;;;18.70;99.90;;;;;;5034220;28;20863;-87
2022/08/06 00:25:28;;;;;;;1.40;0.43;;;18.80;99.90;;;;;;5035330;28;20204;-88
2022/08/06 00:28:00;;;;;;;1.10;0.43;;;18.70;99.90;;;;;;5039171;28;20216;-87
2022/08/06 00:30:33;;;;;;;1.30;0.60;;;18.80;99.90;;;;;;5035464;28;20198;-87
2022/08/06 00:33:03;;;;;;;1.05;0.60;;;18.90;99.90;;;;;;5031018;28;20599;-85
2022/08/06 00:35:37;;;;;;;2.83;0.80;;;19.00;99.90;;;;;;5033013;28;20203;-89
2022/08/06 00:38:07;;;;;;;1.15;0.50;;;19.10;99.90;;;;;;5031582;28;20192;-88
2022/08/06 00:40:39;;;;;;;0.55;0.40;;;19.20;97.90;;;;;;5052471;28;20200;-89
2022/08/06 00:43:11;;;;;;;0.82;0.40;;;19.10;97.30;;;;;;5051401;28;20196;-88
2022/08/06 00:45:42;;;;;;;0.90;0.50;;;19.20;95.70;;;;;;5050296;28;20196;-87
2022/08/06 00:48:13;;;;;;;0.50;0.30;;;19.20;98.30;;;;;;5051680;28;20212;-88
2022/08/06 00:50:44;;;;;;;1.00;0.43;;;19.30;96.80;;;;;;5050885;28;20189;-89
2022/08/06 00:53:15;;;;;;;2.38;0.40;;;19.30;92.90;;;;;;5052235;28;20192;-88
2022/08/06 00:55:46;;;;;;;1.38;0.40;;;19.00;93.10;;;;;;5044557;28;20644;-87
2022/08/06 00:58:18;;;;;;;2.22;0.55;;;19.00;91.30;;;;;;5050919;28;20284;-86
2022/08/06 01:00:49;;;;;;;2.72;0.35;;;19.20;90.40;;;;;;5039910;28;20558;-86
2022/08/06 01:03:20;;;;;;;0.73;0.32;;;19.20;90.20;;;;;;5049950;28;20192;-87
2022/08/06 01:05:51;;;;;;;1.05;0.50;;;19.30;90.20;;;;;;5042032;28;20199;-85
2022/08/06 01:08:22;;;;;;;3.53;0.52;;;19.30;85.70;;;;;;5049519;28;20221;-88
2022/08/06 01:10:52;;;;;;;1.33;0.40;;;19.30;90.40;;;;;;5031876;28;20185;-84
2022/08/06 01:13:25;;;;;;;1.30;0.60;;;19.50;90.40;;;;;;5031561;28;20193;-85
2022/08/06 01:16:05;;;;;;;1.95;0.80;;;19.60;87.80;;;;;;5049328;28;20217;-82
2022/08/06 01:18:43;;;;;;;0.30;0.30;;;19.60;79.50;;;;;;5030487;28;20244;-84
2022/08/06 01:21:32;;;;;;;0.47;0.30;;;19.40;79.40;;;;;;5028924;28;20279;-85
2022/08/06 01:24:39;;;;;;;1.13;0.28;;;19.30;82.20;;;;;;5032976;28;20193;-82
2022/08/06 01:27:34;;;;;;;0.98;0.40;;;19.50;82.00;;;;;;5029348;28;20232;-84
2022/08/06 01:30:08;;;;;;;1.35;0.30;;;19.50;78.40;;;;;;5042317;28;20204;-87
2022/08/06 01:32:45;;;;;;;0.68;0.40;;;19.60;75.30;;;;;;5035738;28;20616;-86
2022/08/06 01:35:20;;;;;;;0.80;0.40;;;19.60;71.50;;;;;;5045857;28;20283;-87
2022/08/06 01:37:58;;;;;;;0.63;0.45;;;19.70;72.70;;;;;;5037227;28;20197;-87
2022/08/06 01:40:34;;;;;;;0.77;0.40;;;19.80;71.10;;;;;;5033795;28;20239;-87
2022/08/06 01:43:09;;;;;;;0.65;0.30;;;20.00;71.40;;;;;;5039163;28;20215;-84
2022/08/06 01:45:41;;;;;;;1.17;0.45;;;20.10;71.60;;;;;;5047205;28;20219;-85
2022/08/06 01:48:16;;;;;;;0.30;0.20;;;20.20;73.40;;;;;;5050728;28;20208;-85
2022/08/06 01:50:51;;;;;;;1.70;0.30;;;20.30;71.60;;;;;;5051002;28;20184;-85
2022/08/06 01:53:26;;;;;;;0.80;0.40;;;20.30;70.60;;;;;;5034238;28;20207;-83
2022/08/06 01:55:59;;;;;;;0.47;0.28;;;20.30;72.10;;;;;;5030110;28;20246;-82
2022/08/06 01:58:39;;;;;;;0.55;0.30;;;20.20;69.50;;;;;;5030306;28;20186;-84
2022/08/06 02:01:12;;;;;;;0.60;0.30;;;20.20;68.00;;;;;;5030070;28;20196;-84
2022/08/06 02:03:46;;;;;;;0.65;0.40;;;19.90;70.40;;;;;;5030150;28;20200;-82
2022/08/06 02:06:19;;;;;;;0.50;0.28;;;19.80;68.70;;;;;;5030453;28;20208;-85
2022/08/06 02:08:51;;;;;;;0.52;0.30;;;19.70;65.60;;;;;;5040392;28;20221;-84
2022/08/06 02:11:23;;;;;;;1.23;0.57;;;19.60;66.60;;;;;;5032954;28;20671;-84
2022/08/06 02:13:58;;;;;;;0.45;0.30;;;19.60;65.50;;;;;;5048495;28;20224;-83
2022/08/06 02:16:32;;;;;;;2.13;0.70;;;19.60;66.40;;;;;;5049613;28;20256;-84
2022/08/06 02:19:05;;;;;;;2.45;0.30;;;19.80;68.30;;;;;;5049614;28;20325;-85
2022/08/06 02:21:38;;;;;;;1.38;0.40;;;20.00;68.30;;;;;;5048756;28;20220;-85
2022/08/06 02:24:12;;;;;;;0.93;0.65;;;20.00;68.70;;;;;;5049655;28;20197;-83
2022/08/06 02:26:45;;;;;;;0.57;0.30;;;20.00;66.20;;;;;;5049859;28;20238;-82
2022/08/06 02:29:21;;;;;;;0.45;0.30;;;19.80;67.60;;;;;;5050341;28;20224;-87
2022/08/06 02:31:54;;;;;;;0.95;0.30;;;19.70;67.60;;;;;;5048912;28;20704;-90
2022/08/06 02:34:26;;;;;;;1.38;0.45;;;19.80;68.20;;;;;;5054114;28;20193;-87
2022/08/06 02:37:03;;;;;;;0.88;0.20;;;19.90;67.40;;;;;;5054189;28;20211;-88
2022/08/06 02:39:38;;;;;;;1.30;0.30;;;19.80;64.00;;;;;;5045338;28;20204;-87
2022/08/06 02:42:17;;;;;;;1.50;0.40;;;19.70;64.90;;;;;;5049847;28;20229;-83
2022/08/06 02:44:57;;;;;;;0.43;0.40;;;19.70;66.50;;;;;;5035503;28;20576;-83
2022/08/06 02:47:33;;;;;;;1.33;0.38;;;19.60;65.80;;;;;;5046660;28;20200;-85
2022/08/06 02:50:05;;;;;;;0.60;0.32;;;19.50;67.10;;;;;;5052487;28;20212;-83
2022/08/06 02:52:43;;;;;;;0.85;0.30;;;19.50;69.30;;;;;;5040081;28;20615;-84
2022/08/06 02:55:17;;;;;;;1.02;0.30;;;19.70;68.20;;;;;;5032869;28;20197;-83
2022/08/06 02:57:53;;;;;;;1.02;0.50;;;19.80;68.30;;;;;;5052937;28;20555;-83
2022/08/06 03:00:26;;;;;;;0.63;0.40;;;20.00;68.90;;;;;;5053224;28;20721;-84
2022/08/06 03:03:00;;;;;;;1.20;0.43;;;20.10;67.60;;;;;;5054438;28;20196;-84
2022/08/06 03:05:32;;;;;;;1.70;0.43;;;20.10;66.60;;;;;;5053937;28;20188;-84
2022/08/06 03:08:03;;;;;;;2.33;0.57;;;20.10;64.40;;;;;;5045928;28;20194;-84
2022/08/06 03:10:35;;;;;;;0.88;0.50;;;20.00;63.60;;;;;;5053284;28;20675;-83
2022/08/06 03:13:08;;;;;;;0.65;0.40;;;20.20;62.70;;;;;;5053195;28;20196;-84
2022/08/06 03:15:42;;;;;;;2.47;0.50;;;20.40;65.20;;;;;;5046900;28;20216;-83
2022/08/06 03:18:14;;;;;;;0.50;0.35;;;20.70;65.20;;;;;;5033117;28;20577;-84
2022/08/06 03:20:49;;;;;;;0.52;0.30;;;20.90;65.50;;;;;;5033668;28;20283;-83
2022/08/06 03:23:22;;;;;;;1.30;0.40;;;21.00;61.80;;;;;;5033208;28;20211;-84
2022/08/06 03:25:53;;;;;;;0.95;0.50;;;20.90;61.90;;;;;;5040746;28;20239;-84
2022/08/06 03:28:25;;;;;;;1.08;0.40;;;20.80;63.20;;;;;;5052737;28;20775;-84
2022/08/06 03:30:59;;;;;;;1.95;0.20;;;21.00;65.70;;;;;;5052661;28;20291;-84
2022/08/06 03:33:30;;;;;;;1.98;0.50;;;21.20;62.40;;;;;;5039447;28;20251;-84
2022/08/06 03:36:02;;;;;;;2.83;0.22;;;21.10;59.50;;;;;;5036787;28;20192;-87
2022/08/06 03:38:40;;;;;;;0.65;0.20;;;21.00;60.80;;;;;;5049113;28;20204;-81
2022/08/06 03:41:12;;;;;;;0.52;0.40;;;21.00;62.60;;;;;;5042503;28;20199;-84
2022/08/06 03:43:43;;;;;;;0.60;0.30;;;20.90;62.40;;;;;;5048687;28;20232;-86
2022/08/06 03:46:19;;;;;;;1.52;0.98;;;20.70;61.10;;;;;;5048411;28;20648;-87
2022/08/06 03:48:54;;;;;;;0.63;0.40;;;20.70;63.80;;;;;;5051940;28;20687;-85
2022/08/06 03:51:30;;;;;;;1.23;0.60;;;20.60;64.60;;;;;;5046496;28;20556;-89
2022/08/06 03:54:05;;;;;;;1.27;0.38;;;20.50;62.40;;;;;;5033391;28;20193;-85
2022/08/06 03:56:40;;;;;;;0.47;0.30;;;20.60;61.20;;;;;;5032978;28;20190;-86
2022/08/06 03:59:11;;;;;;;1.33;0.22;;;20.50;59.50;;;;;;5032881;28;20272;-85
2022/08/06 04:01:48;;;;;;;0.77;0.40;;;20.40;61.00;;;;;;5032391;28;20197;-84
2022/08/06 04:04:21;;;;;;;2.58;0.40;;;20.40;61.60;;;;;;5032964;28;20205;-90
2022/08/06 04:06:52;;;;;;;1.35;0.50;;;20.20;58.80;;;;;;5052294;28;20193;-86
2022/08/06 04:09:24;;;;;;;1.05;0.50;;;20.10;59.60;;;;;;5052277;28;20236;-86
2022/08/06 04:11:57;;;;;;;0.98;0.30;;;20.00;60.10;;;;;;5033238;28;20186;-86
2022/08/06 04:14:28;;;;;;;1.00;0.50;;;20.10;61.50;;;;;;5034519;28;20190;-83
2022/08/06 04:17:03;;;;;;;0.43;0.20;;;20.20;62.80;;;;;;5034279;28;20186;-88
2022/08/06 04:19:35;;;;;;;0.30;0.20;;;20.10;60.00;;;;;;5053220;28;20207;-90
2022/08/06 04:22:07;;;;;;;0.85;0.47;;;20.00;60.30;;;;;;5053360;28;20204;-90
2022/08/06 04:24:41;;;;;;;1.08;0.40;;;20.00;61.90;;;;;;5053537;28;20635;-91
2022/08/06 04:27:13;;;;;;;1.55;0.30;;;20.10;60.50;;;;;;5053344;28;20203;-91
2022/08/06 04:29:46;;;;;;;0.80;0.43;;;20.10;60.30;;;;;;5053329;28;20232;-89
2022/08/06 04:32:21;;;;;;;0.50;0.43;;;20.00;61.00;;;;;;5051457;28;20557;-86
2022/08/06 04:34:53;;;;;;;0.50;0.20;;;19.90;61.40;;;;;;5041193;28;20207;-86
2022/08/06 04:37:24;;;;;;;2.65;0.52;;;19.80;62.00;;;;;;5052840;28;20196;-91
2022/08/06 04:39:55;;;;;;;0.68;0.40;;;19.90;61.30;;;;;;5053339;28;20193;-88
2022/08/06 04:42:26;;;;;;;0.57;0.38;;;19.90;61.90;;;;;;5053827;28;20189;-88
2022/08/06 04:44:57;;;;;;;1.52;0.32;;;19.90;60.80;;;;;;5040581;28;20263;-89
2022/08/06 04:47:34;;;;;;;0.98;0.30;;;19.90;61.30;;;;;;5037789;28;20194;-88
2022/08/06 04:50:06;;;;;;;0.93;0.35;;;20.00;61.70;;;;;;5046161;28;20220;-92
2022/08/06 04:52:37;;;;;;;0.65;0.38;;;20.00;61.30;;;;;;5054044;28;20185;-91
2022/08/06 04:55:08;;;;;;;0.52;0.40;;;19.90;61.70;;;;;;5053059;28;20694;-90
2022/08/06 04:57:40;;;;;;;0.73;0.45;;;19.90;62.10;;;;;;5048477;28;20653;-89
2022/08/06 05:00:12;;;;;;;1.88;0.50;;;20.00;62.40;;;;;;5032910;28;20186;-91
2022/08/06 05:02:44;;;;;;;0.90;0.50;;;19.80;63.10;;;;;;5053476;28;20206;-93
2022/08/06 05:05:20;;;;;;;0.30;0.30;;;19.90;61.20;;;;;;5053965;28;20209;-90
2022/08/06 05:07:52;;;;;;;0.70;0.30;;;19.80;62.20;;;;;;5040451;28;20199;-91
2022/08/06 05:10:33;;;;;;;0.90;0.50;;;19.80;63.50;;;;;;5040968;28;20212;-90
2022/08/06 05:13:06;;;;;;;1.02;0.40;;;19.90;63.90;;;;;;5054328;28;20213;-89
2022/08/06 05:15:43;;;;;;;0.30;0.30;;;20.00;64.70;;;;;;5054391;28;20224;-89
2022/08/06 05:18:23;;;;;;;0.65;0.30;;;20.00;64.10;;;;;;5045731;28;20228;-90
2022/08/06 05:20:57;;;;;;;0.47;0.22;;;19.90;64.20;;;;;;5034044;28;20229;-91
2022/08/06 05:23:35;;;;;;;0.68;0.32;;;19.90;63.80;;;;;;5033163;28;20189;-90
2022/08/06 05:26:06;;;;;;;0.40;0.30;;;19.80;64.00;;;;;;5033486;28;20193;-90
2022/08/06 05:28:40;;;;;;;0.85;0.45;;;20.00;64.60;;;;;;5033118;28;20192;-91
2022/08/06 05:31:11;;;;;;;1.23;0.47;;;20.00;63.20;;;;;;5048964;28;20210;-91
2022/08/06 05:33:44;;;;;;;0.40;0.38;;;20.10;62.80;;;;;;5032988;28;20205;-91
2022/08/06 05:36:17;;;;;;;0.70;0.40;;;20.00;63.80;;;;;;5038824;28;20231;-92
2022/08/06 05:38:48;;;;;;;0.68;0.50;;;20.00;64.30;;;;;;5053117;28;20248;-91
2022/08/06 05:41:20;;;;;;;0.82;0.43;;;19.90;64.20;;;;;;5056829;28;20191;-92
2022/08/06 05:43:51;;;;;;;0.73;0.50;;;19.80;62.80;;;;;;5042360;28;20197;-93
2022/08/06 05:46:24;;;;;;;0.45;0.30;;;19.80;62.10;;;;;;5033511;28;20196;-92
2022/08/06 05:49:02;;;;;;;1.50;0.45;;;19.80;62.60;;;;;;5042036;28;20228;-90
2022/08/06 05:51:39;;;;;;;1.15;0.40;;;19.90;62.80;;;;;;5051153;28;20606;-89
2022/08/06 05:54:20;;;;;;;0.73;0.40;;;20.00;60.70;;;;;;5032541;28;20331;-90
2022/08/06 05:56:54;;;;;;;0.98;0.50;;;19.80;59.30;;;;;;5032865;28;20205;-89
2022/08/06 05:59:30;;;;;;;0.35;0.30;;;19.80;60.40;;;;;;5032168;28;20186;-88
2022/08/06 06:02:01;;;;;;;0.50;0.40;;;19.70;59.90;;;;;;5032262;28;20217;-89
2022/08/06 06:04:36;;;;;;;1.13;0.30;;;19.60;58.40;;;;;;5032547;28;20193;-92
2022/08/06 06:07:07;;;;;;;1.10;0.50;;;19.50;59.80;;;;;;5033309;28;20189;-91
2022/08/06 06:09:39;;;;;;;0.90;0.60;;;19.50;60.20;;;;;;5048675;28;20734;-89
2022/08/06 06:12:12;;;;;;;1.13;0.40;;;19.60;60.70;;;;;;5055551;28;20572;-90
2022/08/06 06:14:44;;;;;;;0.70;0.30;;;19.50;61.00;;;;;;5056052;28;20656;-87
2022/08/06 06:17:42;;;;;;;0.68;0.25;;;19.50;61.10;;;;;;5056115;28;20224;-90
2022/08/06 06:20:22;;;;;;;0.65;0.40;;;19.50;61.20;;;;;;5025094;28;20197;-88
2022/08/06 06:23:01;;;;;;;0.43;0.20;;;19.70;60.80;;;;;;5043120;28;20196;-88
2022/08/06 06:25:35;;;;;;;0.82;0.40;;;19.80;59.50;;;;;;5054257;28;20200;-88
2022/08/06 06:28:15;;;;;;;0.60;0.38;;;19.80;59.70;;;;;;5035992;28;20641;-89
2022/08/06 06:30:53;;;;;;;0.43;0.40;;;19.90;59.40;;;;;;5035428;28;20671;-89
2022/08/06 06:33:30;;;;;;;0.80;0.40;;;19.80;59.30;;;;;;5035142;28;20193;-89
2022/08/06 06:36:08;;;;;;;1.58;0.30;;;19.80;59.60;;;;;;5039457;28;20205;-87
2022/08/06 06:38:46;;;;;;;0.38;0.35;;;19.50;58.90;;;;;;5034730;28;20579;-91
2022/08/06 06:41:26;;;;;;;1.25;0.40;;;19.30;59.50;;;;;;5043861;28;20201;-87
2022/08/06 06:44:02;;;;;;;0.40;0.30;;;19.20;60.80;;;;;;5047746;28;20192;-87
2022/08/06 06:46:37;;;;;;;0.52;0.40;;;19.30;61.30;;;;;;5050063;28;20195;-90
2022/08/06 06:49:16;;;;;;;0.40;0.30;;;19.20;60.90;;;;;;5055221;28;20188;-89
2022/08/06 06:51:55;;;;;;;1.95;0.50;;;19.20;61.90;;;;;;5035735;28;20211;-91
2022/08/06 06:54:31;;;;;;;1.30;0.40;;;19.10;62.80;;;;;;5057106;28;20199;-96
2022/08/06 06:57:04;;;;;;;0.52;0.32;;;19.00;63.20;;;;;;5054676;28;20212;-88
2022/08/06 06:59:39;;;;;;;2.33;1.40;;;19.00;63.70;;;;;;5055416;28;20189;-89
2022/08/06 07:02:17;;;;;;;1.77;1.55;;;19.00;63.80;;;;;;5055236;28;20593;-87
2022/08/06 07:04:48;;;;;;;1.60;1.50;;;18.90;64.70;;;;;;5056313;28;20204;-90
2022/08/06 07:07:24;;;;;;;1.25;0.82;;;18.90;64.70;;;;;;5055984;28;20271;-88
2022/08/06 07:09:58;;;;;;;1.02;0.65;;;18.80;64.80;;;;;;5056331;28;20246;-91
2022/08/06 07:12:32;;;;;;;4.05;1.65;;;18.70;64.70;;;;;;5041204;28;20223;-89
2022/08/06 07:15:04;;;;;;;1.42;1.13;;;18.80;65.60;;;;;;5062601;28;20192;-92
2022/08/06 07:17:36;;;;;;;1.30;1.02;;;18.70;65.90;;;;;;5040022;28;20277;-84
2022/08/06 07:20:11;;;;;;;2.05;0.90;;;18.70;66.80;;;;;;5035892;28;20193;-93
2022/08/06 07:22:48;;;;;;;1.08;0.90;;;18.60;66.30;;;;;;5046531;28;20196;-91
2022/08/06 07:25:19;;;;;;;2.15;0.93;;;18.60;66.80;;;;;;5056013;28;20192;-91
2022/08/06 07:27:55;;;;;;;1.70;1.10;;;18.60;67.10;;;;;;5037144;28;20204;-88
2022/08/06 07:30:28;;;;;;;1.25;0.90;;;18.60;67.90;;;;;;5054302;28;20733;-89
2022/08/06 07:33:00;;;;;;;1.35;0.80;;;18.50;68.10;;;;;;5054548;28;20184;-90
2022/08/06 07:35:31;;;;;;;2.38;1.48;;;18.40;68.50;;;;;;5054861;28;20610;-91
2022/08/06 07:38:06;;;;;;;2.70;1.05;;;18.40;69.50;;;;;;5052771;28;20193;-89
2022/08/06 07:40:40;;;;;;;2.97;1.60;;;18.40;70.30;;;;;;5052061;28;20192;-86
2022/08/06 07:43:15;;;;;;;3.38;2.28;;;18.30;70.40;;;;;;5032152;28;20189;-87
2022/08/06 07:45:48;;;;;;;1.10;1.00;;;18.20;70.50;;;;;;5034419;28;20632;-84
2022/08/06 07:48:22;;;;;;;1.05;0.77;;;18.20;71.20;;;;;;5050613;28;20231;-86
2022/08/06 07:50:55;;;;;;;1.60;1.00;;;18.10;71.50;;;;;;5057244;28;20215;-85
2022/08/06 07:53:29;;;;;;;1.52;1.33;;;18.10;71.20;;;;;;5062968;28;20572;-87
2022/08/06 07:56:00;;;;;;;2.00;1.60;;;18.10;70.90;;;;;;5053855;28;20189;-87
2022/08/06 07:58:32;;;;;;;1.38;0.80;;;18.00;71.40;;;;;;5054589;28;20312;-85
2022/08/06 08:01:03;;;;;;;2.05;1.30;;;18.00;71.60;;;;;;5054440;28;20200;-85
2022/08/06 08:06:23;;;;;;;1.92;0.90;;;18.00;72.20;;;;;;5054523;28;20204;-85
2022/08/06 08:09:02;;;;;;;2.47;0.60;;;18.00;72.50;;;;;;5058022;28;20302;-85
2022/08/06 08:11:34;;;;;;;1.35;0.80;;;17.90;72.40;;;;;;5058679;28;20607;-84
2022/08/06 08:14:12;;;;;;;3.45;1.00;;;17.90;73.00;;;;;;5049774;28;20243;-86
2022/08/06 08:16:43;;;;;;;0.73;0.60;;;17.90;73.90;;;;;;5042976;28;20570;-83
2022/08/06 08:19:30;;;;;;;2.08;0.90;;;17.90;74.10;;;;;;5056391;28;20228;-87
2022/08/06 08:22:02;;;;;;;2.83;1.45;;;17.90;75.10;;;;;;5055004;28;20203;-85
2022/08/06 08:24:36;;;;;;;3.53;1.10;;;17.90;75.20;;;;;;5035685;28;20197;-86
2022/08/06 08:27:09;;;;;;;2.33;1.40;;;17.80;75.40;;;;;;5036710;28;20193;-86
2022/08/06 08:29:41;;;;;;;2.60;1.25;;;17.90;76.50;;;;;;5039443;28;20201;-86
2022/08/06 08:32:13;;;;;;;1.45;1.00;;;17.80;77.50;;;;;;5035071;28;20220;-86
2022/08/06 08:34:43;;;;;;;2.63;1.23;;;17.80;77.60;;;;;;5036560;28;20193;-79
2022/08/06 08:37:14;;;;;;;2.08;1.10;;;17.80;78.70;;;;;;5051754;28;20231;-77
2022/08/06 08:39:47;;;;;;;1.50;0.80;;;17.70;78.80;;;;;;5048789;28;20208;-78
2022/08/06 08:42:21;;;;;;;0.98;0.73;;;17.70;78.70;;;;;;5046519;28;20273;-78
2022/08/06 08:44:52;;;;;;;1.17;0.90;;;17.70;77.90;;;;;;5044270;28;20221;-78
2022/08/06 08:47:23;;;;;;;2.25;0.80;;;17.60;78.40;;;;;;5052880;28;20570;-77
2022/08/06 08:49:57;;;;;;;1.65;0.88;;;17.60;79.40;;;;;;5045190;28;20224;-76
2022/08/06 08:52:36;;;;;;;4.30;1.40;;;17.60;79.00;;;;;;5032214;28;20198;-77
2022/08/06 08:55:11;;;;;;;1.23;0.80;;;17.70;78.40;;;;;;5040953;28;20193;-77
2022/08/06 08:57:42;;;;;;;1.92;1.17;;;17.60;79.10;;;;;;5051104;28;20203;-78
2022/08/06 09:00:13;;;;;;;2.15;1.25;;;17.50;79.30;;;;;;5036452;28;20237;-79
2022/08/06 09:02:44;;;;;;;1.60;1.00;;;17.50;80.50;;;;;;5041504;28;20683;-78
2022/08/06 09:05:17;;;;;;;1.48;0.88;;;17.40;81.50;;;;;;5034896;28;20690;-78
2022/08/06 09:07:48;;;;;;;2.22;1.30;;;17.40;81.30;;;;;;5039595;28;20197;-79
2022/08/06 09:10:20;;;;;;;3.17;1.65;;;17.40;82.10;;;;;;5031666;28;20217;-79
2022/08/06 09:12:51;;;;;;;1.75;1.45;;;17.40;82.40;;;;;;5043196;28;20244;-78
2022/08/06 09:15:22;;;;;;;4.78;2.80;;;17.40;82.90;;;;;;5030807;28;20197;-80
2022/08/06 09:17:53;;;;;;;7.70;3.53;;;17.40;83.50;;;;;;5043122;28;20232;-79
2022/08/06 09:20:23;;;;;;;7.22;1.85;;;17.30;84.10;;;;;;5050653;28;20200;-79
2022/08/06 09:22:54;;;;;;;3.03;1.77;;;17.20;85.80;;;;;;5050076;28;20188;-79
2022/08/06 09:25:45;;;;;;;2.83;1.40;;;17.20;87.30;;;;;;5050478;28;20209;-84
2022/08/06 09:28:34;;;;;;;2.35;1.05;;;17.20;88.10;;;;;;5050472;28;20197;-80
2022/08/06 09:31:06;;;;;;;2.47;1.73;;;17.20;88.40;;;;;;5046321;28;20228;-83
2022/08/06 09:33:38;;;;;;;2.63;1.77;;;17.20;89.70;;;;;;5040868;28;20205;-81
2022/08/06 09:36:10;;;;;;;2.65;1.70;;;17.20;90.10;;;;;;5044491;28;20197;-82
2022/08/06 09:38:50;;;;;;;2.55;1.70;;;17.10;90.30;;;;;;5048266;28;20197;-79
2022/08/06 09:41:23;;;;;;;2.13;1.40;;;17.10;90.00;;;;;;5037165;28;20227;-83
2022/08/06 09:43:55;;;;;;;5.43;1.80;;;17.00;89.80;;;;;;5029863;28;20240;-85
2022/08/06 09:46:40;;;;;;;3.78;1.80;;;17.00;90.30;;;;;;5044042;28;20637;-87
2022/08/06 09:49:12;;;;;;;3.50;1.20;;;16.90;90.70;;;;;;5041817;28;20204;-86
2022/08/06 09:51:44;;;;;;;1.77;1.00;;;16.90;90.90;;;;;;5031731;28;20221;-90
2022/08/06 09:54:17;;;;;;;5.30;2.30;;;16.80;91.10;;;;;;5043285;28;20731;-89
2022/08/06 09:56:59;;;;;;;3.55;1.60;;;16.80;91.50;;;;;;5053589;28;20228;-85
2022/08/06 09:59:30;;;;;;;2.15;1.60;;;16.80;91.80;;;;;;5050577;28;20224;-87
2022/08/06 10:02:01;;;;;;;1.80;0.90;;;16.80;92.50;;;;;;5043134;28;20208;-85
2022/08/06 10:04:33;;;;;;;1.58;1.15;;;16.80;92.60;;;;;;5039111;28;20207;-86
2022/08/06 10:07:04;;;;;;;3.85;2.42;;;16.80;93.00;;;;;;5045732;28;20192;-83
2022/08/06 10:09:37;;;;;;;1.65;0.98;;;16.70;93.70;;;;;;5043208;28;20695;-87
2022/08/06 10:12:20;;;;;;;1.60;1.02;;;16.70;94.30;;;;;;5048229;28;20258;-85
2022/08/06 10:14:51;;;;;;;1.33;0.88;;;16.60;95.20;;;;;;5045259;28;20255;-79
2022/08/06 10:17:23;;;;;;;1.73;1.30;;;16.70;95.80;;;;;;5038056;28;20220;-79
2022/08/06 10:20:10;;;;;;;1.80;1.15;;;16.70;96.00;;;;;;5049046;28;20628;-80
2022/08/06 10:22:54;;;;;;;4.40;1.35;;;16.70;96.70;;;;;;5030333;28;20204;-80
2022/08/06 10:25:28;;;;;;;1.75;1.02;;;16.70;97.00;;;;;;5044379;28;20251;-81
2022/08/06 10:28:01;;;;;;;3.10;1.30;;;16.60;97.50;;;;;;5043373;28;20231;-80
2022/08/06 10:30:32;;;;;;;2.00;1.27;;;16.70;97.60;;;;;;5031981;28;20715;-81
2022/08/06 10:33:10;;;;;;;2.35;1.40;;;16.60;98.20;;;;;;5040874;28;20224;-81
2022/08/06 10:35:44;;;;;;;2.22;1.80;;;16.60;98.50;;;;;;5048021;28;20203;-84
2022/08/06 10:38:19;;;;;;;3.67;1.70;;;16.50;99.20;;;;;;5040420;28;20196;-81
2022/08/06 10:40:54;;;;;;;3.10;1.75;;;16.50;99.80;;;;;;5034636;28;20575;-80
2022/08/06 10:43:29;;;;;;;2.55;1.60;;;16.50;99.90;;;;;;5032700;28;20204;-88
2022/08/06 10:46:00;;;;;;;2.53;1.52;;;16.50;99.90;;;;;;5046245;28;20188;-86
2022/08/06 10:48:32;;;;;;;2.28;1.50;;;16.50;99.90;;;;;;5048547;28;20200;-85
2022/08/06 10:51:03;;;;;;;2.35;1.40;;;16.50;99.90;;;;;;5031895;28;20692;-80
2022/08/06 10:53:35;;;;;;;3.28;1.25;;;16.50;99.90;;;;;;5048612;28;20304;-88
2022/08/06 10:56:08;;;;;;;2.13;1.08;;;16.40;99.90;;;;;;5041183;28;20675;-88
2022/08/06 10:58:42;;;;;;;1.50;1.00;;;16.50;99.90;;;;;;5053411;28;20249;-88
2022/08/06 11:01:22;;;;;;;1.77;1.00;;;16.40;99.90;;;;;;5053269;28;20204;-84
2022/08/06 11:04:07;;;;;;;2.38;1.08;;;16.40;99.90;;;;;;5052446;28;20314;-89
2022/08/06 11:07:12;;;;;;;1.30;1.00;;;16.40;99.90;;;;;;5039630;28;20211;-86
2022/08/06 11:09:59;;;;;;;2.50;1.25;;;16.40;99.90;;;;;;4982914;28;20200;-89
2022/08/06 11:12:46;;;;;;;1.38;1.10;;;16.40;99.90;;;;;;5033584;28;20271;-86
2022/08/06 11:15:19;;;;;;;2.15;1.30;;;16.40;99.90;;;;;;5033194;28;20204;-84
2022/08/06 11:17:51;;;;;;;2.78;1.70;;;16.30;99.90;;;;;;5046771;28;20244;-79
2022/08/06 11:20:42;;;;;;;2.03;1.50;;;16.30;99.90;;;;;;5063558;28;20203;-83
2022/08/06 11:23:31;;;;;;;2.72;1.40;;;16.10;99.90;;;;;;5057448;28;20268;-83
2022/08/06 11:26:03;;;;;;;1.92;1.30;;;16.10;99.90;;;;;;5057774;28;20196;-81
2022/08/06 11:29:01;;;;;;;2.00;1.40;;;16.10;99.90;;;;;;5043513;28;20228;-80
2022/08/06 11:31:47;;;;;;;1.85;1.10;;;16.10;99.90;;;;;;5034378;28;20253;-80
2022/08/06 11:34:19;;;;;;;2.50;1.67;;;16.10;99.90;;;;;;5039243;28;20212;-80
2022/08/06 11:36:58;;;;;;;2.63;1.50;;;16.10;99.90;;;;;;5040189;28;20240;-80
2022/08/06 11:39:29;;;;;;;1.42;1.30;;;16.10;99.90;;;;;;5046331;28;20594;-80
2022/08/06 11:42:02;;;;;;;1.85;1.20;;;16.00;99.90;;;;;;5042145;28;20271;-78
2022/08/06 11:44:34;;;;;;;2.15;1.42;;;16.00;99.90;;;;;;5044834;28;20216;-80
2022/08/06 11:47:27;;;;;;;3.13;1.55;;;16.00;99.90;;;;;;5046939;28;20208;-79
2022/08/06 11:49:57;;;;;;;1.50;1.15;;;16.00;99.90;;;;;;5037306;28;20248;-79
2022/08/06 11:52:44;;;;;;;2.00;1.13;;;16.00;99.90;;;;;;5041366;28;20232;-79
2022/08/06 11:55:17;;;;;;;2.20;1.25;;;16.00;99.90;;;;;;5039872;28;20211;-79
2022/08/06 11:57:48;;;;;;;1.45;0.90;;;16.10;99.90;;;;;;5042717;28;20216;-78
2022/08/06 12:00:24;;;;;;;1.55;0.82;;;16.00;99.90;;;;;;5042029;28;20194;-79
2022/08/06 12:03:06;;;;;;;3.25;1.10;;;15.90;99.90;;;;;;5044663;28;20279;-80
2022/08/06 12:05:54;;;;;;;1.55;0.90;;;15.90;99.90;;;;;;5032960;28;20197;-79
2022/08/06 12:08:29;;;;;;;1.30;0.90;;;15.80;99.90;;;;;;5041073;28;20732;-79
2022/08/06 12:11:24;;;;;;;0.85;0.85;;;15.80;99.90;;;;;;5041845;28;20215;-81
2022/08/06 12:13:56;;;;;;;1.15;0.80;;;15.70;99.90;;;;;;5033512;28;20236;-80
2022/08/06 12:16:38;;;;;;;1.58;0.98;;;15.70;99.90;;;;;;5047273;28;20193;-79
2022/08/06 12:19:17;;;;;;;1.00;0.90;;;15.60;99.90;;;;;;5032223;28;20233;-79
2022/08/06 12:21:53;;;;;;;1.45;1.00;;;15.70;99.90;;;;;;5033521;28;20657;-78
2022/08/06 12:24:27;;;;;;;2.25;0.80;;;15.70;99.90;;;;;;5041069;28;20207;-78
2022/08/06 12:26:58;;;;;;;1.30;0.90;;;15.70;99.90;;;;;;5046363;28;20634;-81
2022/08/06 12:29:34;;;;;;;1.48;1.00;;;15.70;99.90;;;;;;5042278;28;20203;-79
2022/08/06 12:32:21;;;;;;;1.13;0.93;;;15.60;99.90;;;;;;5050764;28;20228;-79
2022/08/06 12:34:54;;;;;;;3.38;1.00;;;15.60;99.90;;;;;;5037087;28;20258;-80
2022/08/06 12:37:34;;;;;;;1.77;0.80;;;15.50;99.90;;;;;;5041365;28;20950;-78
2022/08/06 12:42:52;;;;;;;2.97;1.17;;;15.40;99.90;;;;;;5043094;28;20247;-79
2022/08/06 12:45:24;;;;;;;2.92;1.00;;;15.50;99.90;;;;;;5048915;28;20197;-79
2022/08/06 12:48:02;;;;;;;1.48;0.90;;;15.40;99.90;;;;;;5047032;28;20220;-79
2022/08/06 12:50:35;;;;;;;1.65;0.90;;;15.30;99.90;;;;;;5046939;28;20266;-80
2022/08/06 12:53:07;;;;;;;1.98;0.98;;;15.40;99.90;;;;;;5038582;28;20231;-79
2022/08/06 12:55:45;;;;;;;1.65;0.77;;;15.30;99.90;;;;;;5041342;28;20209;-79
2022/08/06 12:58:22;;;;;;;1.17;0.70;;;15.30;99.90;;;;;;5037447;28;20338;-79
2022/08/06 13:00:55;;;;;;;1.65;0.80;;;15.30;99.90;;;;;;5031818;28;20221;-81
2022/08/06 13:03:27;;;;;;;2.03;0.90;;;15.20;99.90;;;;;;5036584;28;20198;-80
2022/08/06 13:06:02;;;;;;;1.40;0.90;;;15.30;99.90;;;;;;5042686;28;20221;-79
2022/08/06 13:08:33;;;;;;;0.55;0.50;;;15.30;99.90;;;;;;5035298;28;20201;-79
2022/08/06 13:11:04;;;;;;;1.67;0.63;;;15.20;99.90;;;;;;5036293;28;20225;-79
2022/08/06 13:13:41;;;;;;;1.25;0.70;;;15.30;99.90;;;;;;5041122;28;20687;-79
2022/08/06 13:16:13;;;;;;;2.08;0.82;;;15.20;99.90;;;;;;5030923;28;20755;-81
2022/08/06 13:18:45;;;;;;;1.23;0.60;;;15.20;99.90;;;;;;5033035;28;20229;-81
2022/08/06 13:21:25;;;;;;;1.63;0.70;;;15.30;99.90;;;;;;5049018;28;20582;-80
2022/08/06 13:23:56;;;;;;;1.75;0.70;;;15.20;99.90;;;;;;5043832;28;20243;-78
2022/08/06 13:26:28;;;;;;;1.25;0.77;;;15.30;99.90;;;;;;5040291;28;20220;-79
2022/08/06 13:29:10;;;;;;;1.52;0.70;;;15.30;99.90;;;;;;5036301;28;20204;-79
2022/08/06 13:31:43;;;;;;;0.73;0.65;;;15.30;99.90;;;;;;5035120;28;20573;-79